sensor_id;sensor_type;location;lat;lon;timestamp;P1;durP1;ratioP1;P2;durP2;ratioP2
17398;SDS011;8817;48.170;8.592;2023-03-21T00:02:26;4.97;;;4.50;;
17398;SDS011;8817;48.170;8.592;2023-03-21T00:04:53;4.83;;;4.53;;
17398;SDS011;8817;48.170;8.592;2023-03-21T00:07:20;5.23;;;4.63;;
17398;SDS011;8817;48.170;8.592;2023-03-21T00:09:46;5.33;;;4.93;;
17398;SDS011;8817;48.170;8.592;2023-03-21T00:12:13;5.00;;;4.60;;
17398;SDS011;8817;48.170;8.592;2023-03-21T00:14:40;4.80;;;4.50;;
17398;SDS011;8817;48.170;8.592;2023-03-21T00:17:08;4.63;;;4.37;;
17398;SDS011;8817;48.170;8.592;2023-03-21T00:19:37;4.80;;;4.50;;
17398;SDS011;8817;48.170;8.592;2023-03-21T00:22:05;4.67;;;4.47;;
17398;SDS011;8817;48.170;8.592;2023-03-21T00:24:32;4.90;;;4.53;;
17398;SDS011;8817;48.170;8.592;2023-03-21T00:26:59;4.93;;;4.63;;
17398;SDS011;8817;48.170;8.592;2023-03-21T00:29:26;4.87;;;4.40;;
17398;SDS011;8817;48.170;8.592;2023-03-21T00:31:53;5.07;;;4.67;;
17398;SDS011;8817;48.170;8.592;2023-03-21T00:34:19;4.83;;;4.47;;
17398;SDS011;8817;48.170;8.592;2023-03-21T00:36:48;4.97;;;4.57;;
17398;SDS011;8817;48.170;8.592;2023-03-21T00:39:14;5.03;;;4.63;;
17398;SDS011;8817;48.170;8.592;2023-03-21T00:41:41;4.70;;;4.40;;
17398;SDS011;8817;48.170;8.592;2023-03-21T00:44:09;5.03;;;4.63;;
17398;SDS011;8817;48.170;8.592;2023-03-21T00:46:37;5.40;;;5.00;;
17398;SDS011;8817;48.170;8.592;2023-03-21T00:49:04;5.80;;;4.80;;
17398;SDS011;8817;48.170;8.592;2023-03-21T00:51:31;5.47;;;5.00;;
17398;SDS011;8817;48.170;8.592;2023-03-21T00:53:59;4.60;;;4.30;;
17398;SDS011;8817;48.170;8.592;2023-03-21T00:56:26;5.17;;;4.87;;
17398;SDS011;8817;48.170;8.592;2023-03-21T00:58:53;4.90;;;4.57;;
17398;SDS011;8817;48.170;8.592;2023-03-21T01:01:20;5.00;;;4.60;;
17398;SDS011;8817;48.170;8.592;2023-03-21T01:03:46;5.30;;;4.80;;
17398;SDS011;8817;48.170;8.592;2023-03-21T01:06:29;5.30;;;4.80;;
17398;SDS011;8817;48.170;8.592;2023-03-21T01:08:57;4.97;;;4.63;;
17398;SDS011;8817;48.170;8.592;2023-03-21T01:11:26;4.30;;;4.10;;
17398;SDS011;8817;48.170;8.592;2023-03-21T01:13:53;4.70;;;4.40;;
17398;SDS011;8817;48.170;8.592;2023-03-21T01:16:20;5.07;;;4.23;;
17398;SDS011;8817;48.170;8.592;2023-03-21T01:18:47;5.03;;;4.70;;
17398;SDS011;8817;48.170;8.592;2023-03-21T01:21:15;4.47;;;4.27;;
17398;SDS011;8817;48.170;8.592;2023-03-21T01:23:42;6.03;;;4.80;;
17398;SDS011;8817;48.170;8.592;2023-03-21T01:26:10;5.00;;;4.60;;
17398;SDS011;8817;48.170;8.592;2023-03-21T01:28:40;4.93;;;4.63;;
17398;SDS011;8817;48.170;8.592;2023-03-21T01:31:08;5.27;;;4.80;;
17398;SDS011;8817;48.170;8.592;2023-03-21T01:33:36;4.17;;;4.07;;
17398;SDS011;8817;48.170;8.592;2023-03-21T01:36:04;4.67;;;4.37;;
17398;SDS011;8817;48.170;8.592;2023-03-21T01:38:32;4.63;;;4.33;;
17398;SDS011;8817;48.170;8.592;2023-03-21T01:40:59;4.70;;;4.40;;
17398;SDS011;8817;48.170;8.592;2023-03-21T01:43:27;4.50;;;4.30;;
17398;SDS011;8817;48.170;8.592;2023-03-21T01:48:58;4.70;;;4.50;;
17398;SDS011;8817;48.170;8.592;2023-03-21T01:51:28;4.70;;;4.40;;
17398;SDS011;8817;48.170;8.592;2023-03-21T01:53:57;4.70;;;4.30;;
17398;SDS011;8817;48.170;8.592;2023-03-21T01:56:25;4.40;;;4.20;;
17398;SDS011;8817;48.170;8.592;2023-03-21T01:58:57;4.83;;;4.50;;
17398;SDS011;8817;48.170;8.592;2023-03-21T02:01:28;4.30;;;4.10;;
17398;SDS011;8817;48.170;8.592;2023-03-21T02:04:00;4.57;;;4.27;;
17398;SDS011;8817;48.170;8.592;2023-03-21T02:06:29;4.90;;;4.60;;
17398;SDS011;8817;48.170;8.592;2023-03-21T02:09:02;4.37;;;4.20;;
17398;SDS011;8817;48.170;8.592;2023-03-21T02:11:33;4.83;;;4.53;;
17398;SDS011;8817;48.170;8.592;2023-03-21T02:14:01;4.30;;;4.20;;
17398;SDS011;8817;48.170;8.592;2023-03-21T02:16:30;4.60;;;4.40;;
17398;SDS011;8817;48.170;8.592;2023-03-21T02:19:12;4.50;;;4.30;;
17398;SDS011;8817;48.170;8.592;2023-03-21T02:21:59;4.70;;;4.50;;
17398;SDS011;8817;48.170;8.592;2023-03-21T02:24:59;5.03;;;4.70;;
17398;SDS011;8817;48.170;8.592;2023-03-21T02:27:48;4.90;;;4.60;;
17398;SDS011;8817;48.170;8.592;2023-03-21T02:30:29;4.77;;;4.57;;
17398;SDS011;8817;48.170;8.592;2023-03-21T02:33:34;4.60;;;4.40;;
17398;SDS011;8817;48.170;8.592;2023-03-21T02:36:17;4.53;;;4.33;;
17398;SDS011;8817;48.170;8.592;2023-03-21T02:38:54;4.50;;;4.30;;
17398;SDS011;8817;48.170;8.592;2023-03-21T02:41:31;4.40;;;4.20;;
17398;SDS011;8817;48.170;8.592;2023-03-21T02:44:05;4.50;;;4.30;;
17398;SDS011;8817;48.170;8.592;2023-03-21T02:46:39;4.70;;;4.40;;
17398;SDS011;8817;48.170;8.592;2023-03-21T02:49:10;4.80;;;4.50;;
17398;SDS011;8817;48.170;8.592;2023-03-21T02:51:42;4.43;;;4.23;;
17398;SDS011;8817;48.170;8.592;2023-03-21T02:54:13;4.43;;;4.13;;
17398;SDS011;8817;48.170;8.592;2023-03-21T02:56:43;4.57;;;4.37;;
17398;SDS011;8817;48.170;8.592;2023-03-21T02:59:13;4.70;;;4.50;;
17398;SDS011;8817;48.170;8.592;2023-03-21T03:01:41;4.40;;;4.20;;
17398;SDS011;8817;48.170;8.592;2023-03-21T03:04:18;4.60;;;4.37;;
17398;SDS011;8817;48.170;8.592;2023-03-21T03:06:52;4.43;;;4.23;;
17398;SDS011;8817;48.170;8.592;2023-03-21T03:09:41;4.50;;;4.20;;
17398;SDS011;8817;48.170;8.592;2023-03-21T03:12:19;4.57;;;4.27;;
17398;SDS011;8817;48.170;8.592;2023-03-21T03:14:54;4.30;;;4.10;;
17398;SDS011;8817;48.170;8.592;2023-03-21T03:17:42;4.43;;;4.23;;
17398;SDS011;8817;48.170;8.592;2023-03-21T03:20:20;4.07;;;3.97;;
17398;SDS011;8817;48.170;8.592;2023-03-21T03:22:53;4.90;;;4.50;;
17398;SDS011;8817;48.170;8.592;2023-03-21T03:25:27;4.30;;;4.10;;
17398;SDS011;8817;48.170;8.592;2023-03-21T03:27:57;4.60;;;4.30;;
17398;SDS011;8817;48.170;8.592;2023-03-21T03:30:25;3.97;;;3.87;;
17398;SDS011;8817;48.170;8.592;2023-03-21T03:32:54;4.47;;;4.20;;
17398;SDS011;8817;48.170;8.592;2023-03-21T03:35:25;4.30;;;4.10;;
17398;SDS011;8817;48.170;8.592;2023-03-21T03:37:53;4.50;;;4.20;;
17398;SDS011;8817;48.170;8.592;2023-03-21T03:40:23;4.33;;;4.13;;
17398;SDS011;8817;48.170;8.592;2023-03-21T03:42:55;4.20;;;4.00;;
17398;SDS011;8817;48.170;8.592;2023-03-21T03:45:27;4.30;;;4.10;;
17398;SDS011;8817;48.170;8.592;2023-03-21T03:47:57;3.97;;;3.83;;
17398;SDS011;8817;48.170;8.592;2023-03-21T03:50:31;4.50;;;4.20;;
17398;SDS011;8817;48.170;8.592;2023-03-21T03:53:04;4.73;;;4.43;;
17398;SDS011;8817;48.170;8.592;2023-03-21T03:55:38;4.30;;;4.10;;
17398;SDS011;8817;48.170;8.592;2023-03-21T03:58:05;8.03;;;4.30;;
17398;SDS011;8817;48.170;8.592;2023-03-21T04:00:32;4.83;;;4.50;;
17398;SDS011;8817;48.170;8.592;2023-03-21T04:03:00;4.60;;;4.40;;
17398;SDS011;8817;48.170;8.592;2023-03-21T04:05:27;5.10;;;4.37;;
17398;SDS011;8817;48.170;8.592;2023-03-21T04:07:54;4.40;;;4.20;;
17398;SDS011;8817;48.170;8.592;2023-03-21T04:10:21;4.37;;;4.17;;
17398;SDS011;8817;48.170;8.592;2023-03-21T04:12:49;6.37;;;4.50;;
17398;SDS011;8817;48.170;8.592;2023-03-21T04:15:16;4.30;;;4.10;;
17398;SDS011;8817;48.170;8.592;2023-03-21T04:17:44;4.63;;;4.43;;
17398;SDS011;8817;48.170;8.592;2023-03-21T04:20:12;4.30;;;4.10;;
17398;SDS011;8817;48.170;8.592;2023-03-21T04:22:39;4.30;;;4.10;;
17398;SDS011;8817;48.170;8.592;2023-03-21T04:25:06;3.87;;;3.73;;
17398;SDS011;8817;48.170;8.592;2023-03-21T04:27:34;4.07;;;3.97;;
17398;SDS011;8817;48.170;8.592;2023-03-21T04:30:03;4.40;;;4.20;;
17398;SDS011;8817;48.170;8.592;2023-03-21T04:32:31;4.07;;;3.87;;
17398;SDS011;8817;48.170;8.592;2023-03-21T04:35:03;4.50;;;4.30;;
17398;SDS011;8817;48.170;8.592;2023-03-21T04:37:32;4.50;;;4.30;;
17398;SDS011;8817;48.170;8.592;2023-03-21T04:40:01;4.47;;;4.20;;
17398;SDS011;8817;48.170;8.592;2023-03-21T04:42:31;4.60;;;4.30;;
17398;SDS011;8817;48.170;8.592;2023-03-21T04:44:59;4.10;;;4.00;;
17398;SDS011;8817;48.170;8.592;2023-03-21T04:47:27;4.30;;;4.20;;
17398;SDS011;8817;48.170;8.592;2023-03-21T04:49:54;4.30;;;4.10;;
17398;SDS011;8817;48.170;8.592;2023-03-21T04:52:22;4.40;;;4.20;;
17398;SDS011;8817;48.170;8.592;2023-03-21T04:54:49;4.93;;;4.63;;
17398;SDS011;8817;48.170;8.592;2023-03-21T04:57:16;4.67;;;4.47;;
17398;SDS011;8817;48.170;8.592;2023-03-21T04:59:43;5.10;;;4.70;;
17398;SDS011;8817;48.170;8.592;2023-03-21T05:02:10;4.53;;;4.33;;
17398;SDS011;8817;48.170;8.592;2023-03-21T05:04:38;4.53;;;4.33;;
17398;SDS011;8817;48.170;8.592;2023-03-21T05:07:05;5.10;;;4.70;;
17398;SDS011;8817;48.170;8.592;2023-03-21T05:09:32;4.90;;;4.60;;
17398;SDS011;8817;48.170;8.592;2023-03-21T05:11:59;4.40;;;4.30;;
17398;SDS011;8817;48.170;8.592;2023-03-21T05:14:26;4.70;;;4.50;;
17398;SDS011;8817;48.170;8.592;2023-03-21T05:16:53;4.80;;;4.50;;
17398;SDS011;8817;48.170;8.592;2023-03-21T05:19:23;4.53;;;4.40;;
17398;SDS011;8817;48.170;8.592;2023-03-21T05:22:00;5.13;;;4.70;;
17398;SDS011;8817;48.170;8.592;2023-03-21T05:24:30;4.90;;;4.60;;
17398;SDS011;8817;48.170;8.592;2023-03-21T05:26:57;5.07;;;4.53;;
17398;SDS011;8817;48.170;8.592;2023-03-21T05:29:26;4.60;;;4.40;;
17398;SDS011;8817;48.170;8.592;2023-03-21T05:31:54;4.53;;;4.37;;
17398;SDS011;8817;48.170;8.592;2023-03-21T05:34:21;4.87;;;4.53;;
17398;SDS011;8817;48.170;8.592;2023-03-21T05:36:48;4.93;;;4.70;;
17398;SDS011;8817;48.170;8.592;2023-03-21T05:39:16;5.30;;;5.00;;
17398;SDS011;8817;48.170;8.592;2023-03-21T05:41:43;5.63;;;4.87;;
17398;SDS011;8817;48.170;8.592;2023-03-21T05:44:10;4.90;;;4.50;;
17398;SDS011;8817;48.170;8.592;2023-03-21T05:46:37;5.30;;;5.00;;
17398;SDS011;8817;48.170;8.592;2023-03-21T05:49:04;4.90;;;4.60;;
17398;SDS011;8817;48.170;8.592;2023-03-21T05:51:31;11.67;;;4.73;;
17398;SDS011;8817;48.170;8.592;2023-03-21T05:53:57;4.73;;;4.53;;
17398;SDS011;8817;48.170;8.592;2023-03-21T05:56:26;5.03;;;4.73;;
17398;SDS011;8817;48.170;8.592;2023-03-21T05:58:53;5.43;;;5.10;;
17398;SDS011;8817;48.170;8.592;2023-03-21T06:01:19;4.40;;;4.20;;
17398;SDS011;8817;48.170;8.592;2023-03-21T06:03:46;4.87;;;4.60;;
17398;SDS011;8817;48.170;8.592;2023-03-21T06:06:13;4.80;;;4.50;;
17398;SDS011;8817;48.170;8.592;2023-03-21T06:08:40;4.80;;;4.50;;
17398;SDS011;8817;48.170;8.592;2023-03-21T06:11:08;5.20;;;4.80;;
17398;SDS011;8817;48.170;8.592;2023-03-21T06:13:46;5.27;;;4.87;;
17398;SDS011;8817;48.170;8.592;2023-03-21T06:16:13;5.13;;;4.73;;
17398;SDS011;8817;48.170;8.592;2023-03-21T06:18:40;5.10;;;4.90;;
17398;SDS011;8817;48.170;8.592;2023-03-21T06:21:07;4.90;;;4.60;;
17398;SDS011;8817;48.170;8.592;2023-03-21T06:23:34;4.53;;;4.33;;
17398;SDS011;8817;48.170;8.592;2023-03-21T06:26:01;4.70;;;4.50;;
17398;SDS011;8817;48.170;8.592;2023-03-21T06:28:28;4.60;;;4.40;;
17398;SDS011;8817;48.170;8.592;2023-03-21T06:30:57;4.63;;;4.47;;
17398;SDS011;8817;48.170;8.592;2023-03-21T06:33:24;4.60;;;4.40;;
17398;SDS011;8817;48.170;8.592;2023-03-21T06:35:51;4.77;;;4.47;;
17398;SDS011;8817;48.170;8.592;2023-03-21T06:38:18;4.87;;;4.57;;
17398;SDS011;8817;48.170;8.592;2023-03-21T06:40:46;4.47;;;4.27;;
17398;SDS011;8817;48.170;8.592;2023-03-21T06:43:13;4.77;;;4.50;;
17398;SDS011;8817;48.170;8.592;2023-03-21T06:45:40;4.90;;;4.70;;
17398;SDS011;8817;48.170;8.592;2023-03-21T06:48:09;5.40;;;5.00;;
17398;SDS011;8817;48.170;8.592;2023-03-21T06:50:35;6.37;;;5.43;;
17398;SDS011;8817;48.170;8.592;2023-03-21T06:53:03;6.20;;;5.60;;
17398;SDS011;8817;48.170;8.592;2023-03-21T06:55:31;5.40;;;5.00;;
17398;SDS011;8817;48.170;8.592;2023-03-21T06:57:58;5.07;;;4.77;;
17398;SDS011;8817;48.170;8.592;2023-03-21T07:00:25;5.30;;;5.00;;
17398;SDS011;8817;48.170;8.592;2023-03-21T07:02:52;5.30;;;5.00;;
17398;SDS011;8817;48.170;8.592;2023-03-21T07:05:20;5.70;;;5.30;;
17398;SDS011;8817;48.170;8.592;2023-03-21T07:07:47;4.97;;;4.73;;
17398;SDS011;8817;48.170;8.592;2023-03-21T07:10:14;4.90;;;4.70;;
17398;SDS011;8817;48.170;8.592;2023-03-21T07:12:41;4.77;;;4.57;;
17398;SDS011;8817;48.170;8.592;2023-03-21T07:15:08;4.93;;;4.67;;
17398;SDS011;8817;48.170;8.592;2023-03-21T07:17:35;4.70;;;4.40;;
17398;SDS011;8817;48.170;8.592;2023-03-21T07:20:03;5.40;;;4.83;;
17398;SDS011;8817;48.170;8.592;2023-03-21T07:22:33;4.50;;;4.30;;
17398;SDS011;8817;48.170;8.592;2023-03-21T07:25:01;8.67;;;4.80;;
17398;SDS011;8817;48.170;8.592;2023-03-21T07:27:27;4.53;;;4.40;;
17398;SDS011;8817;48.170;8.592;2023-03-21T07:29:54;4.87;;;4.50;;
17398;SDS011;8817;48.170;8.592;2023-03-21T07:32:21;5.00;;;4.67;;
17398;SDS011;8817;48.170;8.592;2023-03-21T07:34:48;4.97;;;4.67;;
17398;SDS011;8817;48.170;8.592;2023-03-21T07:37:15;5.00;;;4.70;;
17398;SDS011;8817;48.170;8.592;2023-03-21T07:39:43;4.50;;;4.30;;
17398;SDS011;8817;48.170;8.592;2023-03-21T07:42:10;4.67;;;4.47;;
17398;SDS011;8817;48.170;8.592;2023-03-21T07:44:37;4.50;;;4.30;;
17398;SDS011;8817;48.170;8.592;2023-03-21T07:47:04;4.70;;;4.40;;
17398;SDS011;8817;48.170;8.592;2023-03-21T07:49:31;5.27;;;4.90;;
17398;SDS011;8817;48.170;8.592;2023-03-21T07:51:58;4.80;;;4.50;;
17398;SDS011;8817;48.170;8.592;2023-03-21T07:54:26;4.67;;;4.37;;
17398;SDS011;8817;48.170;8.592;2023-03-21T07:56:55;4.40;;;4.20;;
17398;SDS011;8817;48.170;8.592;2023-03-21T07:59:22;4.70;;;4.50;;
17398;SDS011;8817;48.170;8.592;2023-03-21T08:01:49;4.83;;;4.53;;
17398;SDS011;8817;48.170;8.592;2023-03-21T08:04:16;4.73;;;4.53;;
17398;SDS011;8817;48.170;8.592;2023-03-21T08:06:43;4.93;;;4.53;;
17398;SDS011;8817;48.170;8.592;2023-03-21T08:09:10;4.70;;;4.40;;
17398;SDS011;8817;48.170;8.592;2023-03-21T08:11:37;5.03;;;4.73;;
17398;SDS011;8817;48.170;8.592;2023-03-21T08:14:06;4.97;;;4.63;;
17398;SDS011;8817;48.170;8.592;2023-03-21T08:16:33;4.70;;;4.50;;
17398;SDS011;8817;48.170;8.592;2023-03-21T08:19:00;5.73;;;5.00;;
17398;SDS011;8817;48.170;8.592;2023-03-21T08:21:27;5.37;;;4.97;;
17398;SDS011;8817;48.170;8.592;2023-03-21T08:23:54;4.57;;;4.37;;
17398;SDS011;8817;48.170;8.592;2023-03-21T08:26:21;5.37;;;4.97;;
17398;SDS011;8817;48.170;8.592;2023-03-21T08:28:49;5.10;;;4.70;;
17398;SDS011;8817;48.170;8.592;2023-03-21T08:31:18;4.88;;;4.50;;
17398;SDS011;8817;48.170;8.592;2023-03-21T08:33:46;5.30;;;4.80;;
17398;SDS011;8817;48.170;8.592;2023-03-21T08:36:15;5.57;;;5.20;;
17398;SDS011;8817;48.170;8.592;2023-03-21T08:38:42;5.43;;;4.93;;
17398;SDS011;8817;48.170;8.592;2023-03-21T08:41:10;7.53;;;5.67;;
17398;SDS011;8817;48.170;8.592;2023-03-21T08:43:37;5.70;;;5.20;;
17398;SDS011;8817;48.170;8.592;2023-03-21T08:46:04;6.00;;;5.40;;
17398;SDS011;8817;48.170;8.592;2023-03-21T08:48:32;6.80;;;5.63;;
17398;SDS011;8817;48.170;8.592;2023-03-21T08:51:02;6.20;;;5.60;;
17398;SDS011;8817;48.170;8.592;2023-03-21T08:53:29;5.13;;;4.77;;
17398;SDS011;8817;48.170;8.592;2023-03-21T08:55:56;5.43;;;5.03;;
17398;SDS011;8817;48.170;8.592;2023-03-21T08:58:23;5.60;;;5.10;;
17398;SDS011;8817;48.170;8.592;2023-03-21T09:00:50;5.40;;;4.93;;
17398;SDS011;8817;48.170;8.592;2023-03-21T09:03:17;6.07;;;4.78;;
17398;SDS011;8817;48.170;8.592;2023-03-21T09:05:46;5.88;;;5.15;;
17398;SDS011;8817;48.170;8.592;2023-03-21T09:08:14;4.93;;;4.57;;
17398;SDS011;8817;48.170;8.592;2023-03-21T09:10:41;5.40;;;4.97;;
17398;SDS011;8817;48.170;8.592;2023-03-21T09:13:07;5.05;;;4.72;;
17398;SDS011;8817;48.170;8.592;2023-03-21T09:15:34;5.28;;;4.78;;
17398;SDS011;8817;48.170;8.592;2023-03-21T09:18:02;5.13;;;4.72;;
17398;SDS011;8817;48.170;8.592;2023-03-21T09:20:37;5.43;;;4.93;;
17398;SDS011;8817;48.170;8.592;2023-03-21T09:23:06;6.00;;;4.75;;
17398;SDS011;8817;48.170;8.592;2023-03-21T09:25:33;5.40;;;4.90;;
17398;SDS011;8817;48.170;8.592;2023-03-21T09:28:00;5.25;;;4.82;;
17398;SDS011;8817;48.170;8.592;2023-03-21T09:30:28;5.32;;;4.93;;
17398;SDS011;8817;48.170;8.592;2023-03-21T09:32:57;5.57;;;5.07;;
17398;SDS011;8817;48.170;8.592;2023-03-21T09:35:24;5.30;;;4.90;;
17398;SDS011;8817;48.170;8.592;2023-03-21T09:37:52;5.80;;;5.22;;
17398;SDS011;8817;48.170;8.592;2023-03-21T09:40:26;5.30;;;4.80;;
17398;SDS011;8817;48.170;8.592;2023-03-21T09:43:06;5.30;;;4.88;;
17398;SDS011;8817;48.170;8.592;2023-03-21T09:45:41;5.32;;;4.82;;
17398;SDS011;8817;48.170;8.592;2023-03-21T09:48:14;5.55;;;5.03;;
17398;SDS011;8817;48.170;8.592;2023-03-21T09:50:46;5.00;;;4.70;;
17398;SDS011;8817;48.170;8.592;2023-03-21T09:53:15;5.50;;;5.00;;
17398;SDS011;8817;48.170;8.592;2023-03-21T09:55:47;4.78;;;4.47;;
17398;SDS011;8817;48.170;8.592;2023-03-21T09:58:15;4.72;;;4.40;;
17398;SDS011;8817;48.170;8.592;2023-03-21T10:00:51;6.25;;;4.90;;
17398;SDS011;8817;48.170;8.592;2023-03-21T10:03:28;5.30;;;4.80;;
17398;SDS011;8817;48.170;8.592;2023-03-21T10:05:59;5.10;;;4.70;;
17398;SDS011;8817;48.170;8.592;2023-03-21T10:08:32;5.13;;;4.60;;
17398;SDS011;8817;48.170;8.592;2023-03-21T10:11:05;5.47;;;4.80;;
17398;SDS011;8817;48.170;8.592;2023-03-21T10:13:38;5.20;;;4.90;;
17398;SDS011;8817;48.170;8.592;2023-03-21T10:16:09;5.40;;;5.00;;
17398;SDS011;8817;48.170;8.592;2023-03-21T10:18:40;5.15;;;4.75;;
17398;SDS011;8817;48.170;8.592;2023-03-21T10:21:11;5.28;;;4.88;;
17398;SDS011;8817;48.170;8.592;2023-03-21T10:23:44;4.88;;;4.47;;
17398;SDS011;8817;48.170;8.592;2023-03-21T10:26:13;9.35;;;5.00;;
17398;SDS011;8817;48.170;8.592;2023-03-21T10:28:40;5.28;;;4.88;;
17398;SDS011;8817;48.170;8.592;2023-03-21T10:31:08;5.40;;;4.90;;
17398;SDS011;8817;48.170;8.592;2023-03-21T10:33:41;5.60;;;5.15;;
17398;SDS011;8817;48.170;8.592;2023-03-21T10:36:11;5.40;;;5.00;;
17398;SDS011;8817;48.170;8.592;2023-03-21T10:38:43;4.80;;;4.50;;
17398;SDS011;8817;48.170;8.592;2023-03-21T10:41:14;5.43;;;5.03;;
17398;SDS011;8817;48.170;8.592;2023-03-21T10:43:42;5.60;;;5.18;;
17398;SDS011;8817;48.170;8.592;2023-03-21T10:46:11;5.43;;;5.03;;
17398;SDS011;8817;48.170;8.592;2023-03-21T10:48:41;5.40;;;4.90;;
17398;SDS011;8817;48.170;8.592;2023-03-21T10:51:11;5.80;;;5.20;;
17398;SDS011;8817;48.170;8.592;2023-03-21T10:53:45;5.00;;;4.70;;
17398;SDS011;8817;48.170;8.592;2023-03-21T10:56:18;4.85;;;4.55;;
17398;SDS011;8817;48.170;8.592;2023-03-21T10:58:49;5.43;;;5.03;;
17398;SDS011;8817;48.170;8.592;2023-03-21T11:01:21;4.82;;;4.53;;
17398;SDS011;8817;48.170;8.592;2023-03-21T11:03:54;5.45;;;5.05;;
17398;SDS011;8817;48.170;8.592;2023-03-21T11:06:25;5.15;;;4.75;;
17398;SDS011;8817;48.170;8.592;2023-03-21T11:08:55;5.22;;;4.82;;
17398;SDS011;8817;48.170;8.592;2023-03-21T11:11:27;5.32;;;4.82;;
17398;SDS011;8817;48.170;8.592;2023-03-21T11:13:59;4.88;;;4.50;;
17398;SDS011;8817;48.170;8.592;2023-03-21T11:16:34;4.70;;;4.47;;
17398;SDS011;8817;48.170;8.592;2023-03-21T11:19:10;4.65;;;4.35;;
17398;SDS011;8817;48.170;8.592;2023-03-21T11:21:38;4.80;;;4.50;;
17398;SDS011;8817;48.170;8.592;2023-03-21T11:24:07;4.57;;;4.28;;
17398;SDS011;8817;48.170;8.592;2023-03-21T11:26:40;4.63;;;4.32;;
17398;SDS011;8817;48.170;8.592;2023-03-21T11:29:11;4.70;;;4.40;;
17398;SDS011;8817;48.170;8.592;2023-03-21T11:31:49;4.32;;;4.13;;
17398;SDS011;8817;48.170;8.592;2023-03-21T11:34:23;4.18;;;3.97;;
17398;SDS011;8817;48.170;8.592;2023-03-21T11:36:52;4.80;;;4.40;;
17398;SDS011;8817;48.170;8.592;2023-03-21T11:39:27;4.38;;;4.07;;
17398;SDS011;8817;48.170;8.592;2023-03-21T11:41:58;4.38;;;4.18;;
17398;SDS011;8817;48.170;8.592;2023-03-21T11:44:26;4.65;;;4.35;;
17398;SDS011;8817;48.170;8.592;2023-03-21T11:46:55;4.88;;;4.47;;
17398;SDS011;8817;48.170;8.592;2023-03-21T11:49:22;4.93;;;4.47;;
17398;SDS011;8817;48.170;8.592;2023-03-21T11:51:53;4.63;;;4.32;;
17398;SDS011;8817;48.170;8.592;2023-03-21T11:54:31;4.63;;;4.43;;
17398;SDS011;8817;48.170;8.592;2023-03-21T11:57:10;4.20;;;4.00;;
17398;SDS011;8817;48.170;8.592;2023-03-21T11:59:47;4.30;;;4.10;;
17398;SDS011;8817;48.170;8.592;2023-03-21T12:02:25;4.30;;;4.10;;
17398;SDS011;8817;48.170;8.592;2023-03-21T12:05:10;4.18;;;3.97;;
17398;SDS011;8817;48.170;8.592;2023-03-21T12:07:46;4.95;;;4.57;;
17398;SDS011;8817;48.170;8.592;2023-03-21T12:10:29;4.22;;;4.03;;
17398;SDS011;8817;48.170;8.592;2023-03-21T12:13:13;4.40;;;4.20;;
17398;SDS011;8817;48.170;8.592;2023-03-21T12:15:49;4.78;;;4.50;;
17398;SDS011;8817;48.170;8.592;2023-03-21T12:21:26;4.30;;;4.20;;
17398;SDS011;8817;48.170;8.592;2023-03-21T12:24:00;4.63;;;4.32;;
17398;SDS011;8817;48.170;8.592;2023-03-21T12:26:31;4.35;;;4.13;;
17398;SDS011;8817;48.170;8.592;2023-03-21T12:29:16;4.70;;;4.40;;
17398;SDS011;8817;48.170;8.592;2023-03-21T12:32:05;4.43;;;4.13;;
17398;SDS011;8817;48.170;8.592;2023-03-21T12:34:51;4.47;;;4.20;;
17398;SDS011;8817;48.170;8.592;2023-03-21T12:37:30;4.72;;;4.43;;
17398;SDS011;8817;48.170;8.592;2023-03-21T12:40:04;4.75;;;4.38;;
17398;SDS011;8817;48.170;8.592;2023-03-21T12:45:47;4.88;;;4.47;;
17398;SDS011;8817;48.170;8.592;2023-03-21T12:48:19;4.50;;;4.30;;
17398;SDS011;8817;48.170;8.592;2023-03-21T12:50:52;4.45;;;4.20;;
17398;SDS011;8817;48.170;8.592;2023-03-21T12:53:33;4.00;;;3.80;;
17398;SDS011;8817;48.170;8.592;2023-03-21T12:56:15;4.43;;;4.13;;
17398;SDS011;8817;48.170;8.592;2023-03-21T12:58:47;4.53;;;4.32;;
17398;SDS011;8817;48.170;8.592;2023-03-21T13:01:18;4.45;;;4.15;;
17398;SDS011;8817;48.170;8.592;2023-03-21T13:03:49;4.32;;;4.03;;
17398;SDS011;8817;48.170;8.592;2023-03-21T13:06:31;6.57;;;4.03;;
17398;SDS011;8817;48.170;8.592;2023-03-21T13:08:59;4.40;;;4.10;;
17398;SDS011;8817;48.170;8.592;2023-03-21T13:11:32;4.28;;;4.00;;
17398;SDS011;8817;48.170;8.592;2023-03-21T13:14:00;4.35;;;4.10;;
17398;SDS011;8817;48.170;8.592;2023-03-21T13:16:33;4.57;;;4.10;;
17398;SDS011;8817;48.170;8.592;2023-03-21T13:19:04;4.00;;;3.80;;
17398;SDS011;8817;48.170;8.592;2023-03-21T13:21:40;3.97;;;3.78;;
17398;SDS011;8817;48.170;8.592;2023-03-21T13:24:24;4.18;;;3.97;;
17398;SDS011;8817;48.170;8.592;2023-03-21T13:26:57;3.88;;;3.70;;
17398;SDS011;8817;48.170;8.592;2023-03-21T13:29:31;4.40;;;4.07;;
17398;SDS011;8817;48.170;8.592;2023-03-21T13:32:15;4.20;;;3.95;;
17398;SDS011;8817;48.170;8.592;2023-03-21T13:34:52;4.30;;;4.10;;
17398;SDS011;8817;48.170;8.592;2023-03-21T13:37:21;4.57;;;4.35;;
17398;SDS011;8817;48.170;8.592;2023-03-21T13:39:51;4.88;;;4.40;;
17398;SDS011;8817;48.170;8.592;2023-03-21T13:42:22;4.50;;;4.30;;
17398;SDS011;8817;48.170;8.592;2023-03-21T13:44:56;4.60;;;4.30;;
17398;SDS011;8817;48.170;8.592;2023-03-21T13:50:35;4.82;;;4.53;;
17398;SDS011;8817;48.170;8.592;2023-03-21T13:53:20;4.70;;;4.40;;
17398;SDS011;8817;48.170;8.592;2023-03-21T13:58:50;4.60;;;4.30;;
17398;SDS011;8817;48.170;8.592;2023-03-21T14:01:34;4.50;;;4.20;;
17398;SDS011;8817;48.170;8.592;2023-03-21T14:04:15;4.90;;;4.55;;
17398;SDS011;8817;48.170;8.592;2023-03-21T14:06:48;4.68;;;4.35;;
17398;SDS011;8817;48.170;8.592;2023-03-21T14:09:24;4.55;;;4.20;;
17398;SDS011;8817;48.170;8.592;2023-03-21T14:11:54;4.70;;;4.30;;
17398;SDS011;8817;48.170;8.592;2023-03-21T14:14:22;4.65;;;4.35;;
17398;SDS011;8817;48.170;8.592;2023-03-21T14:16:51;4.40;;;4.20;;
17398;SDS011;8817;48.170;8.592;2023-03-21T14:19:20;4.57;;;4.25;;
17398;SDS011;8817;48.170;8.592;2023-03-21T14:21:55;4.55;;;4.25;;
17398;SDS011;8817;48.170;8.592;2023-03-21T14:24:22;4.10;;;3.83;;
17398;SDS011;8817;48.170;8.592;2023-03-21T14:26:49;4.68;;;4.40;;
17398;SDS011;8817;48.170;8.592;2023-03-21T14:29:20;4.00;;;3.80;;
17398;SDS011;8817;48.170;8.592;2023-03-21T14:31:50;4.00;;;3.70;;
17398;SDS011;8817;48.170;8.592;2023-03-21T14:34:17;4.50;;;4.20;;
17398;SDS011;8817;48.170;8.592;2023-03-21T14:36:47;4.55;;;4.30;;
17398;SDS011;8817;48.170;8.592;2023-03-21T14:39:15;4.13;;;3.92;;
17398;SDS011;8817;48.170;8.592;2023-03-21T14:41:46;4.03;;;3.92;;
17398;SDS011;8817;48.170;8.592;2023-03-21T14:44:16;3.65;;;3.50;;
17398;SDS011;8817;48.170;8.592;2023-03-21T14:46:50;3.97;;;3.70;;
17398;SDS011;8817;48.170;8.592;2023-03-21T14:49:27;3.63;;;3.53;;
17398;SDS011;8817;48.170;8.592;2023-03-21T14:51:56;3.40;;;3.30;;
17398;SDS011;8817;48.170;8.592;2023-03-21T14:54:24;3.60;;;3.50;;
17398;SDS011;8817;48.170;8.592;2023-03-21T14:56:53;3.50;;;3.40;;
17398;SDS011;8817;48.170;8.592;2023-03-21T14:59:25;3.65;;;3.55;;
17398;SDS011;8817;48.170;8.592;2023-03-21T15:01:58;3.40;;;3.30;;
17398;SDS011;8817;48.170;8.592;2023-03-21T15:04:29;3.40;;;3.30;;
17398;SDS011;8817;48.170;8.592;2023-03-21T15:06:58;3.40;;;3.30;;
17398;SDS011;8817;48.170;8.592;2023-03-21T15:09:29;3.60;;;3.40;;
17398;SDS011;8817;48.170;8.592;2023-03-21T15:11:57;3.67;;;3.58;;
17398;SDS011;8817;48.170;8.592;2023-03-21T15:14:26;3.42;;;3.33;;
17398;SDS011;8817;48.170;8.592;2023-03-21T15:16:57;3.47;;;3.38;;
17398;SDS011;8817;48.170;8.592;2023-03-21T15:19:31;3.35;;;3.30;;
17398;SDS011;8817;48.170;8.592;2023-03-21T15:22:01;3.55;;;3.45;;
17398;SDS011;8817;48.170;8.592;2023-03-21T15:24:36;3.30;;;3.20;;
17398;SDS011;8817;48.170;8.592;2023-03-21T15:27:07;3.63;;;3.53;;
17398;SDS011;8817;48.170;8.592;2023-03-21T15:29:38;3.53;;;3.30;;
17398;SDS011;8817;48.170;8.592;2023-03-21T15:32:11;3.60;;;3.53;;
17398;SDS011;8817;48.170;8.592;2023-03-21T15:34:42;3.58;;;3.40;;
17398;SDS011;8817;48.170;8.592;2023-03-21T15:37:13;3.70;;;3.60;;